createdAt,value
2018-10-07T00:01:10.054Z,81.77
2018-10-07T00:03:39.459Z,82.40
2018-10-07T00:06:09.828Z,82.67
2018-10-07T00:08:39.108Z,83.15
2018-10-07T00:11:11.041Z,83.06
2018-10-07T00:13:45.591Z,83.00
2018-10-07T00:16:33.626Z,83.47
2018-10-07T00:19:05.765Z,83.62
2018-10-07T00:21:35.861Z,83.43
2018-10-07T00:24:07.421Z,83.26
2018-10-07T00:26:39.925Z,82.96
2018-10-07T00:29:09.497Z,83.17
2018-10-07T00:31:44.151Z,83.24
2018-10-07T00:34:13.557Z,83.39
2018-10-07T00:36:42.922Z,83.30
2018-10-07T00:39:12.668Z,84.04
2018-10-07T00:41:42.125Z,84.18
2018-10-07T00:44:11.822Z,84.40
2018-10-07T00:46:41.352Z,85.03
2018-10-07T00:49:12.869Z,85.67
2018-10-07T00:51:42.401Z,85.81
2018-10-07T00:54:12.471Z,86.34
2018-10-07T00:56:43.536Z,85.81
2018-10-07T00:59:13.112Z,86.05
2018-10-07T01:01:42.418Z,86.03
2018-10-07T01:04:11.840Z,85.79
2018-10-07T01:06:41.312Z,85.59
2018-10-07T01:09:12.176Z,85.27
2018-10-07T01:11:42.890Z,85.63
2018-10-07T01:14:12.405Z,84.94
2018-10-07T01:16:41.886Z,85.35
2018-10-07T01:19:11.286Z,85.60
2018-10-07T01:21:40.867Z,85.81
2018-10-07T01:24:10.260Z,85.69
2018-10-07T01:26:39.726Z,87.06
2018-10-07T01:29:10.699Z,87.35
2018-10-07T01:31:40.903Z,87.67
2018-10-07T01:34:12.137Z,87.30
2018-10-07T01:36:42.029Z,87.80
2018-10-07T01:39:12.230Z,87.84
2018-10-07T01:41:41.757Z,87.16
2018-10-07T01:44:11.521Z,87.66
2018-10-07T01:46:41.294Z,88.09
2018-10-07T01:49:11.606Z,89.37
2018-10-07T01:51:41.459Z,89.91
2018-10-07T01:54:22.755Z,90.84
2018-10-07T01:56:53.594Z,91.52
2018-10-07T01:59:23.008Z,92.23
2018-10-07T02:01:52.333Z,92.67
2018-10-07T02:04:21.854Z,93.27
2018-10-07T02:06:51.350Z,93.10
2018-10-07T02:09:20.888Z,94.05
2018-10-07T02:11:50.587Z,94.82
2018-10-07T02:14:21.922Z,94.85
2018-10-07T02:16:51.620Z,94.94
2018-10-07T02:19:23.437Z,95.08
2018-10-07T02:21:54.847Z,94.55
2018-10-07T02:24:24.992Z,95.04
2018-10-07T02:26:54.606Z,94.61
2018-10-07T02:29:24.356Z,94.14
2018-10-07T02:31:54.640Z,94.44
2018-10-07T02:34:24.362Z,95.42
2018-10-07T02:36:53.756Z,94.97
2018-10-07T02:39:23.731Z,94.83
2018-10-07T02:41:53.694Z,94.94
2018-10-07T02:44:23.488Z,95.79
2018-10-07T02:46:53.396Z,95.67
2018-10-07T02:49:23.085Z,95.76
2018-10-07T02:51:52.970Z,95.38
2018-10-07T02:54:23.448Z,95.96
2018-10-07T02:56:54.060Z,96.25
2018-10-07T02:59:24.568Z,96.50
2018-10-07T03:01:54.448Z,97.16
2018-10-07T03:04:25.731Z,97.10
2018-10-07T03:06:55.718Z,97.36
2018-10-07T03:09:25.854Z,97.91
2018-10-07T03:11:56.053Z,97.68
2018-10-07T03:14:26.212Z,97.90
2018-10-07T03:16:57.108Z,98.12
2018-10-07T03:19:26.680Z,98.40
2018-10-07T03:21:56.474Z,98.16
2018-10-07T03:24:25.975Z,98.50
2018-10-07T03:26:56.100Z,98.61
2018-10-07T03:29:25.756Z,98.70
2018-10-07T03:31:55.842Z,98.78
2018-10-07T03:34:26.605Z,98.48
2018-10-07T03:36:57.406Z,98.72
2018-10-07T03:39:30.042Z,98.43
2018-10-07T03:42:01.726Z,98.52
2018-10-07T03:44:33.101Z,97.97
2018-10-07T03:47:03.917Z,97.18
2018-10-07T03:49:34.618Z,97.44
2018-10-07T03:52:06.885Z,97.62
2018-10-07T03:54:38.185Z,98.37
2018-10-07T03:57:07.518Z,98.00
2018-10-07T03:59:37.434Z,98.68
2018-10-07T04:02:06.982Z,98.44
2018-10-07T04:04:36.493Z,98.98
2018-10-07T04:07:06.302Z,98.30
2018-10-07T04:09:35.999Z,97.71
2018-10-07T04:12:06.593Z,97.05
2018-10-07T04:14:36.751Z,96.85
2018-10-07T04:17:07.999Z,97.17
2018-10-07T04:19:41.037Z,96.93
2018-10-07T04:22:10.983Z,96.98
2018-10-07T04:24:41.782Z,96.93
2018-10-07T04:27:12.058Z,96.67
2018-10-07T04:29:42.000Z,95.93
2018-10-07T04:32:12.061Z,96.00
2018-10-07T04:34:41.921Z,95.54
2018-10-07T04:37:11.596Z,95.52
2018-10-07T04:39:41.586Z,95.36
2018-10-07T04:42:15.349Z,95.56
2018-10-07T04:44:45.281Z,94.81
2018-10-07T04:47:15.423Z,94.37
2018-10-07T04:49:45.835Z,94.67
2018-10-07T04:52:17.959Z,94.92
2018-10-07T04:54:47.836Z,94.40
2018-10-07T04:57:17.500Z,95.16
2018-10-07T04:59:47.105Z,95.18
2018-10-07T05:02:16.822Z,94.78
2018-10-07T05:04:47.111Z,94.66
2018-10-07T05:07:16.751Z,95.21
2018-10-07T05:09:47.744Z,95.80
2018-10-07T05:12:18.544Z,96.33
2018-10-07T05:14:48.384Z,96.21
2018-10-07T05:17:18.348Z,96.48
2018-10-07T05:19:52.573Z,96.12
2018-10-07T05:22:22.453Z,95.86
2018-10-07T05:24:53.146Z,94.86
2018-10-07T05:27:23.455Z,95.30
2018-10-07T05:29:53.070Z,95.18
2018-10-07T05:32:23.040Z,94.51
2018-10-07T05:34:52.669Z,93.96
2018-10-07T05:37:22.190Z,94.39
2018-10-07T05:39:53.909Z,93.45
2018-10-07T05:42:25.785Z,92.98
2018-10-07T05:44:56.172Z,92.41
2018-10-07T05:47:30.856Z,92.77
2018-10-07T05:50:00.496Z,92.22
2018-10-07T05:52:30.314Z,92.19
2018-10-07T05:54:59.762Z,92.35
2018-10-07T06:00:13.639Z,89.66
2018-10-07T06:02:45.632Z,89.61
2018-10-07T06:05:16.116Z,88.32
2018-10-07T06:07:45.819Z,88.15
2018-10-07T06:10:15.296Z,86.36
2018-10-07T06:12:58.008Z,85.84
2018-10-07T06:15:43.902Z,85.57
2018-10-07T06:18:13.435Z,84.19
2018-10-07T06:20:43.245Z,83.64
2018-10-07T06:23:12.650Z,84.29
2018-10-07T06:25:42.863Z,83.29
2018-10-07T06:28:12.277Z,82.14
2018-10-07T06:30:41.992Z,81.54
2018-10-07T06:33:11.522Z,81.74
2018-10-07T06:35:47.462Z,81.14
2018-10-07T06:38:17.736Z,81.04
2018-10-07T06:40:47.647Z,81.06
2018-10-07T06:43:19.231Z,80.56
2018-10-07T06:45:50.227Z,80.17
2018-10-07T06:48:20.077Z,80.46
2018-10-07T06:50:51.447Z,79.88
2018-10-07T06:53:21.335Z,79.21
2018-10-07T06:55:53.085Z,78.52
2018-10-07T06:58:23.233Z,79.11
2018-10-07T07:00:54.143Z,78.58
2018-10-07T07:03:29.736Z,78.21
2018-10-07T07:06:00.315Z,78.43
2018-10-07T07:08:30.619Z,77.42
2018-10-07T07:11:00.810Z,78.26
2018-10-07T07:13:30.508Z,77.81
2018-10-07T07:16:00.132Z,77.57
2018-10-07T07:18:30.241Z,77.40
2018-10-07T07:21:01.323Z,76.86
2018-10-07T07:23:32.938Z,77.17
2018-10-07T07:26:04.152Z,76.82
2018-10-07T07:28:37.943Z,77.31
2018-10-07T07:31:08.475Z,77.45
2018-10-07T07:43:03.501Z,77.72
2018-10-07T07:45:36.444Z,78.13
2018-10-07T07:48:10.498Z,77.06
2018-10-07T07:56:35.811Z,75.84
2018-10-07T07:59:14.146Z,74.81
2018-10-07T08:01:44.823Z,76.01
2018-10-07T08:04:15.120Z,74.57
2018-10-07T08:06:44.934Z,73.95
2018-10-07T08:09:14.755Z,73.30
2018-10-07T08:11:44.443Z,72.08
2018-10-07T08:14:14.828Z,72.77
2018-10-07T08:16:46.278Z,71.74
2018-10-07T08:19:17.622Z,71.40
2018-10-07T08:21:50.292Z,70.70
2018-10-07T08:24:21.368Z,70.65
2018-10-07T08:26:51.780Z,69.64
2018-10-07T08:29:22.884Z,67.94
2018-10-07T08:31:54.879Z,67.54
2018-10-07T08:34:25.995Z,68.28
2018-10-07T08:36:56.980Z,69.56
2018-10-07T08:39:27.027Z,69.08
2018-10-07T08:41:56.878Z,68.78
2018-10-07T08:44:26.545Z,67.92
2018-10-07T08:46:57.422Z,68.41
2018-10-07T08:49:27.995Z,69.18
2018-10-07T08:51:57.870Z,69.31
2018-10-07T08:54:28.276Z,69.20
2018-10-07T08:56:58.285Z,68.75
2018-10-07T08:59:27.814Z,68.91
2018-10-07T09:02:00.388Z,67.64
2018-10-07T09:04:30.382Z,67.46
2018-10-07T09:07:00.293Z,67.69
2018-10-07T09:09:30.057Z,67.69
2018-10-07T09:11:59.881Z,67.40
2018-10-07T09:14:30.546Z,66.55
2018-10-07T09:16:59.923Z,65.94
2018-10-07T09:19:29.431Z,65.58
2018-10-07T09:21:58.846Z,65.17
2018-10-07T09:24:28.842Z,65.44
2018-10-07T09:26:58.213Z,65.71
2018-10-07T09:29:28.008Z,66.91
2018-10-07T09:31:58.027Z,65.82
2018-10-07T09:34:28.146Z,66.26
2018-10-07T09:36:58.170Z,65.90
2018-10-07T09:39:27.627Z,66.80
2018-10-07T09:41:58.306Z,66.93
2018-10-07T09:44:27.653Z,64.95
2018-10-07T09:46:57.201Z,64.26
2018-10-07T09:49:26.902Z,64.80
2018-10-07T09:51:57.554Z,62.48
2018-10-07T09:54:27.374Z,60.77
2018-10-07T09:56:57.256Z,59.44
2018-10-07T09:59:27.011Z,57.08
2018-10-07T10:01:57.379Z,56.80
2018-10-07T10:04:28.142Z,56.81
2018-10-07T10:06:57.897Z,56.00
2018-10-07T10:09:27.477Z,55.74
2018-10-07T10:11:57.497Z,55.33
2018-10-07T10:14:27.209Z,55.77
2018-10-07T10:17:00.987Z,56.92
2018-10-07T10:19:38.292Z,56.54
2018-10-07T10:24:20.250Z,56.11
2018-10-07T10:27:33.556Z,56.38
2018-10-07T10:30:07.589Z,57.45
2018-10-07T10:32:47.275Z,57.32
2018-10-07T10:36:24.893Z,56.25
2018-10-07T10:39:06.060Z,56.57
2018-10-07T10:42:48.426Z,54.84
2018-10-07T10:45:35.891Z,54.35
2018-10-07T10:48:44.720Z,54.82
2018-10-07T10:52:21.846Z,54.91
2018-10-07T10:56:03.625Z,54.94
2018-10-07T10:58:40.389Z,54.79
2018-10-07T11:01:17.573Z,53.96
2018-10-07T11:03:56.708Z,54.08
2018-10-07T11:06:47.304Z,53.64
2018-10-07T11:09:26.664Z,53.70
2018-10-07T11:12:04.977Z,53.02
2018-10-07T11:14:45.552Z,53.71
2018-10-07T11:19:35.378Z,53.38
2018-10-07T11:22:26.489Z,53.16
2018-10-07T11:25:06.997Z,53.25
2018-10-07T11:27:59.212Z,53.59
2018-10-07T11:31:05.102Z,53.29
2018-10-07T11:34:03.115Z,51.83
2018-10-07T11:38:52.691Z,52.18
2018-10-07T11:42:31.121Z,52.32
2018-10-07T11:45:08.962Z,51.73
2018-10-07T11:48:03.242Z,51.71
2018-10-07T11:50:41.634Z,52.21
2018-10-07T11:53:30.286Z,50.45
2018-10-07T11:55:59.879Z,48.08
2018-10-07T11:58:29.351Z,46.95
2018-10-07T12:00:59.003Z,44.45
2018-10-07T12:03:29.290Z,45.24
2018-10-07T12:05:59.072Z,42.80
2018-10-07T12:08:39.387Z,41.47
2018-10-07T12:11:11.257Z,39.37
2018-10-07T12:13:40.756Z,37.89
2018-10-07T12:16:12.385Z,38.07
2018-10-07T12:18:41.791Z,37.52
2018-10-07T12:21:11.410Z,36.70
2018-10-07T12:23:40.814Z,36.25
2018-10-07T12:26:11.150Z,36.68
2018-10-07T12:28:40.712Z,37.21
2018-10-07T12:31:09.927Z,36.85
2018-10-07T12:33:39.566Z,36.58
2018-10-07T12:36:09.608Z,36.10
2018-10-07T12:38:39.008Z,34.80
2018-10-07T12:41:08.746Z,35.13
2018-10-07T12:43:38.488Z,35.24
2018-10-07T12:46:08.079Z,35.41
2018-10-07T12:48:37.432Z,34.83
2018-10-07T12:51:07.425Z,35.33
2018-10-07T12:53:37.101Z,33.57
2018-10-07T12:56:09.331Z,33.62
2018-10-07T12:58:39.879Z,31.58
2018-10-07T13:01:09.224Z,32.33
2018-10-07T13:03:38.697Z,32.10
2018-10-07T13:06:08.077Z,32.79
2018-10-07T13:08:38.314Z,31.75
2018-10-07T13:11:08.229Z,32.04
2018-10-07T13:13:37.609Z,31.55
2018-10-07T13:16:07.261Z,31.52
2018-10-07T13:18:36.787Z,32.07
2018-10-07T13:21:06.808Z,31.53
2018-10-07T13:23:36.384Z,30.28
2018-10-07T13:26:06.151Z,30.99
2018-10-07T13:28:35.557Z,29.21
2018-10-07T13:31:05.523Z,30.84
2018-10-07T13:33:35.671Z,31.84
2018-10-07T13:36:06.423Z,32.22
2018-10-07T13:38:35.848Z,33.32
2018-10-07T13:41:05.671Z,32.33
2018-10-07T13:43:35.250Z,33.33
2018-10-07T13:46:04.838Z,31.37
2018-10-07T13:48:34.277Z,32.33
2018-10-07T13:51:03.886Z,33.26
2018-10-07T13:53:33.306Z,32.13
2018-10-07T13:56:02.732Z,32.79
2018-10-07T13:58:32.079Z,31.63
2018-10-07T14:01:01.501Z,33.19
2018-10-07T14:03:31.134Z,34.24
2018-10-07T14:06:00.552Z,35.50
2018-10-07T14:08:30.001Z,35.80
2018-10-07T14:11:00.021Z,35.54
2018-10-07T14:13:30.201Z,36.51
2018-10-07T14:15:59.753Z,36.42
2018-10-07T14:18:29.410Z,37.45
2018-10-07T14:20:58.811Z,37.18
2018-10-07T14:23:28.301Z,38.73
2018-10-07T14:25:57.570Z,39.83
2018-10-07T14:28:26.984Z,40.00
2018-10-07T14:30:56.666Z,40.79
2018-10-07T14:33:26.020Z,40.96
2018-10-07T14:35:55.378Z,42.13
2018-10-07T14:38:24.876Z,41.90
2018-10-07T14:40:54.385Z,41.63
2018-10-07T14:43:25.553Z,41.68
2018-10-07T14:45:55.033Z,42.49
2018-10-07T14:48:24.518Z,42.60
2018-10-07T14:50:54.590Z,42.32
2018-10-07T14:53:24.578Z,42.59
2018-10-07T14:55:54.090Z,42.51
2018-10-07T14:58:24.760Z,43.10
2018-10-07T15:00:54.345Z,43.08
2018-10-07T15:03:24.127Z,43.37
2018-10-07T15:05:53.775Z,43.00
2018-10-07T15:08:23.498Z,43.91
2018-10-07T15:10:56.316Z,44.06
2018-10-07T15:13:25.998Z,45.01
2018-10-07T15:15:55.293Z,43.57
2018-10-07T15:18:25.045Z,43.58
2018-10-07T15:20:55.073Z,43.18
2018-10-07T15:23:24.768Z,45.70
2018-10-07T15:25:54.366Z,44.92
2018-10-07T15:28:23.705Z,44.22
2018-10-07T15:30:53.127Z,45.04
2018-10-07T15:33:22.532Z,43.93
2018-10-07T15:35:52.239Z,44.40
2018-10-07T15:38:21.725Z,44.99
2018-10-07T15:40:51.239Z,45.06
2018-10-07T15:43:20.661Z,44.02
2018-10-07T15:45:51.700Z,44.20
2018-10-07T15:48:21.493Z,44.42
2018-10-07T15:50:51.290Z,44.46
2018-10-07T15:53:21.046Z,44.55
2018-10-07T15:55:50.947Z,44.59
2018-10-07T15:58:20.965Z,45.44
2018-10-07T16:00:50.703Z,46.00
2018-10-07T16:03:20.322Z,45.94
2018-10-07T16:05:49.943Z,45.51
2018-10-07T16:08:20.546Z,46.37
2018-10-07T16:10:50.073Z,45.69
2018-10-07T16:13:20.573Z,45.76
2018-10-07T16:15:50.265Z,46.54
2018-10-07T16:18:19.830Z,46.75
2018-10-07T16:20:49.439Z,46.67
2018-10-07T16:23:19.733Z,46.74
2018-10-07T16:25:50.285Z,47.09
2018-10-07T16:28:21.424Z,46.90
2018-10-07T16:30:51.990Z,48.03
2018-10-07T16:33:21.649Z,48.62
2018-10-07T16:35:51.183Z,48.87
2018-10-07T16:38:20.954Z,48.51
2018-10-07T16:40:50.538Z,49.00
2018-10-07T16:43:20.210Z,49.15
2018-10-07T16:45:49.681Z,49.24
2018-10-07T16:48:19.523Z,48.76
2018-10-07T16:50:49.962Z,49.43
2018-10-07T16:53:19.530Z,49.18
2018-10-07T16:55:50.033Z,49.83
2018-10-07T16:58:19.454Z,49.22
2018-10-07T17:00:49.095Z,49.63
2018-10-07T17:10:03.893Z,50.46
2018-10-07T17:12:35.020Z,50.83
2018-10-07T17:15:04.569Z,50.71
2018-10-07T17:17:34.457Z,50.78
2018-10-07T17:20:03.908Z,50.98
2018-10-07T17:22:33.509Z,51.87
2018-10-07T17:25:03.886Z,51.42
2018-10-07T17:27:33.315Z,51.78
2018-10-07T17:30:02.890Z,52.41
2018-10-07T17:32:32.470Z,51.86
2018-10-07T17:35:02.141Z,52.31
2018-10-07T17:37:31.745Z,52.82
2018-10-07T17:40:01.536Z,53.22
2018-10-07T17:42:32.256Z,53.19
2018-10-07T17:45:01.694Z,52.67
2018-10-07T17:47:31.925Z,53.21
2018-10-07T17:50:01.467Z,53.70
2018-10-07T17:52:31.916Z,53.68
2018-10-07T17:55:05.573Z,53.79
2018-10-07T17:57:38.651Z,53.68
2018-10-07T18:00:09.077Z,54.12
2018-10-07T18:02:40.732Z,53.88
2018-10-07T18:05:22.154Z,54.08
2018-10-07T18:08:02.816Z,53.77
2018-10-07T18:10:35.637Z,54.03
2018-10-07T18:13:09.243Z,53.88
2018-10-07T18:15:40.645Z,54.29
2018-10-07T18:18:11.486Z,54.61
2018-10-07T18:20:43.554Z,54.54
2018-10-07T18:23:14.980Z,54.88
2018-10-07T18:25:45.556Z,55.18
2018-10-07T18:28:16.415Z,54.48
2018-10-07T18:30:47.744Z,55.25
2018-10-07T18:33:18.464Z,55.13
2018-10-07T18:35:49.292Z,55.35
2018-10-07T18:40:58.174Z,54.96
2018-10-07T18:43:44.372Z,55.38
2018-10-07T18:46:34.029Z,55.47
2018-10-07T18:49:24.221Z,55.66
2018-10-07T18:53:16.908Z,56.07
2018-10-07T18:56:15.443Z,55.81
2018-10-07T18:58:50.593Z,56.43
2018-10-07T19:01:21.389Z,55.96
2018-10-07T19:03:53.728Z,55.29
2018-10-07T19:06:25.557Z,56.13
2018-10-07T19:08:56.375Z,56.74
2018-10-07T19:11:26.398Z,57.29
2018-10-07T19:13:56.389Z,57.37
2018-10-07T19:16:25.759Z,57.72
2018-10-07T19:18:55.455Z,57.41
2018-10-07T19:21:25.186Z,57.75
2018-10-07T19:23:56.854Z,57.82
2018-10-07T19:26:26.852Z,57.85
2018-10-07T19:28:57.206Z,58.25
2018-10-07T19:31:30.939Z,58.78
2018-10-07T19:34:03.546Z,58.50
2018-10-07T19:36:35.107Z,58.85
2018-10-07T19:39:06.423Z,59.04
2018-10-07T19:41:37.151Z,59.00
2018-10-07T19:44:09.105Z,58.77
2018-10-07T19:49:10.496Z,58.98
2018-10-07T19:51:41.962Z,59.14
2018-10-07T19:54:12.969Z,59.24
2018-10-07T19:56:43.595Z,59.02
2018-10-07T19:59:14.859Z,59.64
2018-10-07T20:01:45.613Z,59.67
2018-10-07T20:04:15.205Z,59.84
2018-10-07T20:06:46.876Z,59.71
2018-10-07T20:09:16.640Z,60.49
2018-10-07T20:11:46.312Z,59.55
2018-10-07T20:14:15.889Z,60.16
2018-10-07T20:16:45.779Z,60.16
2018-10-07T20:19:15.292Z,60.10
2018-10-07T20:21:44.918Z,60.02
2018-10-07T20:24:14.914Z,60.04
2018-10-07T20:26:44.691Z,60.44
2018-10-07T20:29:14.278Z,59.87
2018-10-07T20:31:44.844Z,59.93
2018-10-07T20:34:15.505Z,60.09
2018-10-07T20:36:45.010Z,60.28
2018-10-07T20:39:15.566Z,60.48
2018-10-07T20:41:45.304Z,60.14
2018-10-07T20:44:14.742Z,60.13
2018-10-07T20:46:44.439Z,60.33
2018-10-07T20:49:14.047Z,60.00
2018-10-07T20:51:43.809Z,60.28
2018-10-07T20:54:13.286Z,60.47
2018-10-07T20:56:43.145Z,60.36
2018-10-07T20:59:13.665Z,60.08
2018-10-07T21:01:42.998Z,60.36
2018-10-07T21:04:17.300Z,60.34
2018-10-07T21:06:49.340Z,60.50
2018-10-07T21:09:19.840Z,60.60
2018-10-07T21:11:49.327Z,61.10
2018-10-07T21:14:27.349Z,61.13
2018-10-07T21:17:10.591Z,61.21
2018-10-07T21:19:48.569Z,61.52
2018-10-07T21:22:25.780Z,62.10
2018-10-07T21:25:06.355Z,61.60
2018-10-07T21:27:42.612Z,62.09
2018-10-07T21:30:13.619Z,62.58
2018-10-07T21:32:52.987Z,62.94
2018-10-07T21:35:31.619Z,63.10
2018-10-07T21:38:15.211Z,63.20
2018-10-07T21:40:44.752Z,63.17
2018-10-07T21:43:15.476Z,63.19
2018-10-07T21:45:44.953Z,63.69
2018-10-07T21:48:14.492Z,63.12
2018-10-07T21:53:17.024Z,64.19
2018-10-07T21:55:47.205Z,64.00
2018-10-07T21:58:17.823Z,64.15
2018-10-07T22:00:47.387Z,64.15
2018-10-07T22:03:17.039Z,64.35
2018-10-07T22:05:47.442Z,64.22
2018-10-07T22:08:17.862Z,64.42
2018-10-07T22:10:48.191Z,64.33
2018-10-07T22:13:18.472Z,64.71
2018-10-07T22:15:48.949Z,64.98
2018-10-07T22:18:19.147Z,65.06
2018-10-07T22:20:49.443Z,64.81
2018-10-07T22:23:20.106Z,64.95
2018-10-07T22:25:50.582Z,64.89
2018-10-07T22:28:22.092Z,65.26
2018-10-07T22:30:52.589Z,65.11
2018-10-07T22:33:22.897Z,65.30
2018-10-07T22:35:53.358Z,65.78
2018-10-07T22:38:24.268Z,65.87
2018-10-07T22:40:55.808Z,65.73
2018-10-07T22:43:28.171Z,66.17
2018-10-07T22:46:00.858Z,66.35
2018-10-07T22:48:33.992Z,66.55
2018-10-07T22:51:04.777Z,65.82
2018-10-07T22:53:35.444Z,66.00
2018-10-07T22:56:06.528Z,65.90
2018-10-07T22:58:36.864Z,66.18
2018-10-07T23:01:06.777Z,66.04
2018-10-07T23:03:37.192Z,66.49
2018-10-07T23:06:08.719Z,66.94
2018-10-07T23:08:38.962Z,66.98
2018-10-07T23:11:10.353Z,67.14
2018-10-07T23:13:40.029Z,67.43
2018-10-07T23:16:10.177Z,67.02
2018-10-07T23:18:40.193Z,67.45
2018-10-07T23:21:11.879Z,67.75
2018-10-07T23:23:42.048Z,68.18
2018-10-07T23:26:12.458Z,68.47
2018-10-07T23:28:44.185Z,68.54
2018-10-07T23:31:16.225Z,68.89
2018-10-07T23:33:50.141Z,69.00
2018-10-07T23:36:24.870Z,69.20
2018-10-07T23:38:55.350Z,69.69
2018-10-07T23:41:25.882Z,69.60
2018-10-07T23:43:57.268Z,69.78
2018-10-07T23:46:27.625Z,69.59
2018-10-07T23:48:57.437Z,70.12
2018-10-07T23:51:27.893Z,70.51
2018-10-07T23:53:57.140Z,70.46
2018-10-07T23:56:29.211Z,70.57
2018-10-07T23:59:02.667Z,70.76
